sensor_id;sensor_type;location;lat;lon;timestamp;temperature;humidity
52543;DHT22;38449;52.696;6.186;2023-03-29T00:02:01;5.90;99.90
52543;DHT22;38449;52.696;6.186;2023-03-29T00:04:27;5.90;99.90
52543;DHT22;38449;52.696;6.186;2023-03-29T00:06:54;5.80;99.90
52543;DHT22;38449;52.696;6.186;2023-03-29T00:09:21;5.80;99.90
52543;DHT22;38449;52.696;6.186;2023-03-29T00:11:47;5.80;99.90
52543;DHT22;38449;52.696;6.186;2023-03-29T00:14:14;5.90;99.90
52543;DHT22;38449;52.696;6.186;2023-03-29T00:16:40;5.80;99.90
52543;DHT22;38449;52.696;6.186;2023-03-29T00:19:07;5.90;99.90
52543;DHT22;38449;52.696;6.186;2023-03-29T00:21:40;5.90;99.90
52543;DHT22;38449;52.696;6.186;2023-03-29T00:24:07;5.90;99.90
52543;DHT22;38449;52.696;6.186;2023-03-29T00:26:37;5.90;99.90
52543;DHT22;38449;52.696;6.186;2023-03-29T00:29:04;5.90;99.90
52543;DHT22;38449;52.696;6.186;2023-03-29T00:31:30;5.80;99.90
52543;DHT22;38449;52.696;6.186;2023-03-29T00:33:56;5.90;99.90
52543;DHT22;38449;52.696;6.186;2023-03-29T00:36:24;5.90;99.90
52543;DHT22;38449;52.696;6.186;2023-03-29T00:38:51;5.80;99.90
52543;DHT22;38449;52.696;6.186;2023-03-29T00:41:18;5.80;99.90
52543;DHT22;38449;52.696;6.186;2023-03-29T00:43:55;5.90;99.90
52543;DHT22;38449;52.696;6.186;2023-03-29T00:46:23;5.90;99.90
52543;DHT22;38449;52.696;6.186;2023-03-29T00:48:54;5.80;99.90
52543;DHT22;38449;52.696;6.186;2023-03-29T00:51:23;5.80;99.90
52543;DHT22;38449;52.696;6.186;2023-03-29T00:53:55;5.80;99.90
52543;DHT22;38449;52.696;6.186;2023-03-29T00:56:28;5.90;99.90
52543;DHT22;38449;52.696;6.186;2023-03-29T00:59:19;5.90;99.90
52543;DHT22;38449;52.696;6.186;2023-03-29T01:01:55;5.80;99.90
52543;DHT22;38449;52.696;6.186;2023-03-29T01:07:15;5.90;99.90
52543;DHT22;38449;52.696;6.186;2023-03-29T01:10:05;5.80;99.90
52543;DHT22;38449;52.696;6.186;2023-03-29T01:12:42;5.90;99.90
52543;DHT22;38449;52.696;6.186;2023-03-29T01:15:13;5.80;99.90
52543;DHT22;38449;52.696;6.186;2023-03-29T01:17:42;5.90;99.90
52543;DHT22;38449;52.696;6.186;2023-03-29T01:20:39;5.80;99.90
52543;DHT22;38449;52.696;6.186;2023-03-29T01:23:21;5.80;99.90
52543;DHT22;38449;52.696;6.186;2023-03-29T01:26:13;5.90;99.90
52543;DHT22;38449;52.696;6.186;2023-03-29T01:28:50;5.80;99.90
52543;DHT22;38449;52.696;6.186;2023-03-29T01:31:26;5.70;99.90
52543;DHT22;38449;52.696;6.186;2023-03-29T01:37:04;5.90;99.90
52543;DHT22;38449;52.696;6.186;2023-03-29T01:39:32;5.90;99.90
52543;DHT22;38449;52.696;6.186;2023-03-29T01:45:09;5.90;99.90
52543;DHT22;38449;52.696;6.186;2023-03-29T01:48:00;5.90;99.90
52543;DHT22;38449;52.696;6.186;2023-03-29T01:56:15;5.90;99.90
52543;DHT22;38449;52.696;6.186;2023-03-29T01:58:49;5.90;99.90
52543;DHT22;38449;52.696;6.186;2023-03-29T02:01:20;5.90;99.90
52543;DHT22;38449;52.696;6.186;2023-03-29T02:03:49;5.90;99.90
52543;DHT22;38449;52.696;6.186;2023-03-29T02:06:22;5.80;99.90
52543;DHT22;38449;52.696;6.186;2023-03-29T02:08:49;5.90;99.90
52543;DHT22;38449;52.696;6.186;2023-03-29T02:11:16;5.90;99.90
52543;DHT22;38449;52.696;6.186;2023-03-29T02:13:43;5.90;99.90
52543;DHT22;38449;52.696;6.186;2023-03-29T02:16:16;5.90;99.90
52543;DHT22;38449;52.696;6.186;2023-03-29T02:18:45;5.90;99.90
52543;DHT22;38449;52.696;6.186;2023-03-29T02:21:25;5.90;99.90
52543;DHT22;38449;52.696;6.186;2023-03-29T02:24:03;5.90;99.90
52543;DHT22;38449;52.696;6.186;2023-03-29T02:26:38;5.90;99.90
52543;DHT22;38449;52.696;6.186;2023-03-29T02:29:04;5.90;99.90
52543;DHT22;38449;52.696;6.186;2023-03-29T02:31:39;6.00;99.90
52543;DHT22;38449;52.696;6.186;2023-03-29T02:34:18;6.00;99.90
52543;DHT22;38449;52.696;6.186;2023-03-29T02:36:52;6.00;99.90
52543;DHT22;38449;52.696;6.186;2023-03-29T02:39:20;6.00;99.90
52543;DHT22;38449;52.696;6.186;2023-03-29T02:41:50;6.00;99.90
52543;DHT22;38449;52.696;6.186;2023-03-29T02:44:23;6.00;99.90
52543;DHT22;38449;52.696;6.186;2023-03-29T02:47:02;6.00;99.90
52543;DHT22;38449;52.696;6.186;2023-03-29T02:49:31;6.00;99.90
52543;DHT22;38449;52.696;6.186;2023-03-29T02:52:05;6.00;99.90
52543;DHT22;38449;52.696;6.186;2023-03-29T02:54:34;6.00;99.90
52543;DHT22;38449;52.696;6.186;2023-03-29T02:57:04;6.00;99.90
52543;DHT22;38449;52.696;6.186;2023-03-29T02:59:33;6.00;99.90
52543;DHT22;38449;52.696;6.186;2023-03-29T03:02:02;6.00;99.90
52543;DHT22;38449;52.696;6.186;2023-03-29T03:04:28;6.00;99.90
52543;DHT22;38449;52.696;6.186;2023-03-29T03:06:54;6.00;99.90
52543;DHT22;38449;52.696;6.186;2023-03-29T03:09:21;6.00;99.90
52543;DHT22;38449;52.696;6.186;2023-03-29T03:11:47;6.00;99.90
52543;DHT22;38449;52.696;6.186;2023-03-29T03:14:22;6.00;99.90
52543;DHT22;38449;52.696;6.186;2023-03-29T03:16:48;6.00;99.90
52543;DHT22;38449;52.696;6.186;2023-03-29T03:19:15;6.10;99.90
52543;DHT22;38449;52.696;6.186;2023-03-29T03:21:41;6.10;99.90
52543;DHT22;38449;52.696;6.186;2023-03-29T03:24:08;6.10;99.90
52543;DHT22;38449;52.696;6.186;2023-03-29T03:26:34;6.10;99.90
52543;DHT22;38449;52.696;6.186;2023-03-29T03:29:03;6.10;99.90
52543;DHT22;38449;52.696;6.186;2023-03-29T03:31:29;6.10;99.90
52543;DHT22;38449;52.696;6.186;2023-03-29T03:33:56;6.10;99.90
52543;DHT22;38449;52.696;6.186;2023-03-29T03:36:22;6.10;99.90
52543;DHT22;38449;52.696;6.186;2023-03-29T03:38:51;6.10;99.90
52543;DHT22;38449;52.696;6.186;2023-03-29T03:41:18;6.20;99.90
52543;DHT22;38449;52.696;6.186;2023-03-29T03:43:51;6.20;99.90
52543;DHT22;38449;52.696;6.186;2023-03-29T03:46:17;6.20;99.90
52543;DHT22;38449;52.696;6.186;2023-03-29T03:48:47;6.20;99.90
52543;DHT22;38449;52.696;6.186;2023-03-29T03:51:15;6.10;99.90
52543;DHT22;38449;52.696;6.186;2023-03-29T03:53:41;6.20;99.90
52543;DHT22;38449;52.696;6.186;2023-03-29T03:56:07;6.20;99.90
52543;DHT22;38449;52.696;6.186;2023-03-29T03:58:35;6.20;99.90
52543;DHT22;38449;52.696;6.186;2023-03-29T04:01:03;6.20;99.90
52543;DHT22;38449;52.696;6.186;2023-03-29T04:03:30;6.20;99.90
52543;DHT22;38449;52.696;6.186;2023-03-29T04:06:00;6.20;99.90
52543;DHT22;38449;52.696;6.186;2023-03-29T04:08:26;6.20;99.90
52543;DHT22;38449;52.696;6.186;2023-03-29T04:10:54;6.20;99.90
52543;DHT22;38449;52.696;6.186;2023-03-29T04:13:22;6.30;99.90
52543;DHT22;38449;52.696;6.186;2023-03-29T04:15:55;6.30;99.90
52543;DHT22;38449;52.696;6.186;2023-03-29T04:18:25;6.30;99.90
52543;DHT22;38449;52.696;6.186;2023-03-29T04:23:40;6.30;99.90
52543;DHT22;38449;52.696;6.186;2023-03-29T04:26:08;6.20;99.90
52543;DHT22;38449;52.696;6.186;2023-03-29T04:28:34;6.20;99.90
52543;DHT22;38449;52.696;6.186;2023-03-29T04:31:01;6.20;99.90
52543;DHT22;38449;52.696;6.186;2023-03-29T04:33:27;6.20;99.90
52543;DHT22;38449;52.696;6.186;2023-03-29T04:36:01;6.20;99.90
52543;DHT22;38449;52.696;6.186;2023-03-29T04:38:27;6.10;99.90
52543;DHT22;38449;52.696;6.186;2023-03-29T04:40:54;6.20;99.90
52543;DHT22;38449;52.696;6.186;2023-03-29T04:43:20;6.10;99.90
52543;DHT22;38449;52.696;6.186;2023-03-29T04:45:48;6.10;99.90
52543;DHT22;38449;52.696;6.186;2023-03-29T04:48:15;6.00;99.90
52543;DHT22;38449;52.696;6.186;2023-03-29T04:50:45;6.10;99.90
52543;DHT22;38449;52.696;6.186;2023-03-29T04:53:12;6.10;99.90
52543;DHT22;38449;52.696;6.186;2023-03-29T04:55:45;6.00;99.90
52543;DHT22;38449;52.696;6.186;2023-03-29T04:58:12;6.10;99.90
52543;DHT22;38449;52.696;6.186;2023-03-29T05:00:38;6.10;99.90
52543;DHT22;38449;52.696;6.186;2023-03-29T05:03:05;6.10;99.90
52543;DHT22;38449;52.696;6.186;2023-03-29T05:05:33;6.00;99.90
52543;DHT22;38449;52.696;6.186;2023-03-29T05:07:59;6.00;99.90
52543;DHT22;38449;52.696;6.186;2023-03-29T05:10:25;6.00;99.90
52543;DHT22;38449;52.696;6.186;2023-03-29T05:12:52;6.00;99.90
52543;DHT22;38449;52.696;6.186;2023-03-29T05:15:19;6.00;99.90
52543;DHT22;38449;52.696;6.186;2023-03-29T05:17:46;6.00;99.90
52543;DHT22;38449;52.696;6.186;2023-03-29T05:20:14;6.00;99.90
52543;DHT22;38449;52.696;6.186;2023-03-29T05:22:41;6.00;99.90
52543;DHT22;38449;52.696;6.186;2023-03-29T05:25:08;6.00;99.90
52543;DHT22;38449;52.696;6.186;2023-03-29T05:27:36;6.00;99.90
52543;DHT22;38449;52.696;6.186;2023-03-29T05:30:03;6.00;99.90
52543;DHT22;38449;52.696;6.186;2023-03-29T05:32:29;6.10;99.90
52543;DHT22;38449;52.696;6.186;2023-03-29T05:34:55;6.00;99.90
52543;DHT22;38449;52.696;6.186;2023-03-29T05:37:25;6.10;99.90
52543;DHT22;38449;52.696;6.186;2023-03-29T05:39:51;6.10;99.90
52543;DHT22;38449;52.696;6.186;2023-03-29T05:42:17;6.10;99.90
52543;DHT22;38449;52.696;6.186;2023-03-29T05:44:47;6.10;99.90
52543;DHT22;38449;52.696;6.186;2023-03-29T05:47:13;6.10;99.90
52543;DHT22;38449;52.696;6.186;2023-03-29T05:49:40;6.10;99.90
52543;DHT22;38449;52.696;6.186;2023-03-29T05:52:06;6.20;99.90
52543;DHT22;38449;52.696;6.186;2023-03-29T05:54:39;6.20;99.90
52543;DHT22;38449;52.696;6.186;2023-03-29T05:57:06;6.10;99.90
52543;DHT22;38449;52.696;6.186;2023-03-29T05:59:33;6.20;99.90
52543;DHT22;38449;52.696;6.186;2023-03-29T06:01:59;6.20;99.90
52543;DHT22;38449;52.696;6.186;2023-03-29T06:04:28;6.20;99.90
52543;DHT22;38449;52.696;6.186;2023-03-29T06:06:54;6.20;99.90
52543;DHT22;38449;52.696;6.186;2023-03-29T06:09:20;6.30;99.90
52543;DHT22;38449;52.696;6.186;2023-03-29T06:11:54;6.30;99.90
52543;DHT22;38449;52.696;6.186;2023-03-29T06:14:23;6.30;99.90
52543;DHT22;38449;52.696;6.186;2023-03-29T06:16:50;6.30;99.90
52543;DHT22;38449;52.696;6.186;2023-03-29T06:19:16;6.30;99.90
52543;DHT22;38449;52.696;6.186;2023-03-29T06:21:43;6.40;99.90
52543;DHT22;38449;52.696;6.186;2023-03-29T06:24:09;6.40;99.90
52543;DHT22;38449;52.696;6.186;2023-03-29T06:26:36;6.40;99.90
52543;DHT22;38449;52.696;6.186;2023-03-29T06:29:02;6.50;99.90
52543;DHT22;38449;52.696;6.186;2023-03-29T06:31:29;6.50;99.90
52543;DHT22;38449;52.696;6.186;2023-03-29T06:33:56;6.50;99.90
52543;DHT22;38449;52.696;6.186;2023-03-29T06:36:23;6.60;99.90
52543;DHT22;38449;52.696;6.186;2023-03-29T06:38:49;6.60;99.90
52543;DHT22;38449;52.696;6.186;2023-03-29T06:41:16;6.60;99.90
52543;DHT22;38449;52.696;6.186;2023-03-29T06:43:42;6.70;99.90
52543;DHT22;38449;52.696;6.186;2023-03-29T06:46:08;6.70;99.90
52543;DHT22;38449;52.696;6.186;2023-03-29T06:48:38;6.70;99.90
52543;DHT22;38449;52.696;6.186;2023-03-29T06:51:04;6.70;99.90
52543;DHT22;38449;52.696;6.186;2023-03-29T06:53:33;6.70;99.90
52543;DHT22;38449;52.696;6.186;2023-03-29T06:55:59;6.80;99.90
52543;DHT22;38449;52.696;6.186;2023-03-29T06:58:30;6.80;99.90
52543;DHT22;38449;52.696;6.186;2023-03-29T07:00:59;6.90;99.90
52543;DHT22;38449;52.696;6.186;2023-03-29T07:03:30;6.90;99.90
52543;DHT22;38449;52.696;6.186;2023-03-29T07:06:01;7.00;99.90
52543;DHT22;38449;52.696;6.186;2023-03-29T07:08:29;7.00;99.90
52543;DHT22;38449;52.696;6.186;2023-03-29T07:11:00;7.00;99.90
52543;DHT22;38449;52.696;6.186;2023-03-29T07:13:27;7.00;99.90
52543;DHT22;38449;52.696;6.186;2023-03-29T07:15:53;7.10;99.90
52543;DHT22;38449;52.696;6.186;2023-03-29T07:18:20;7.10;99.90
52543;DHT22;38449;52.696;6.186;2023-03-29T07:20:46;7.10;99.90
52543;DHT22;38449;52.696;6.186;2023-03-29T07:23:13;7.20;99.90
52543;DHT22;38449;52.696;6.186;2023-03-29T07:25:40;7.20;99.90
52543;DHT22;38449;52.696;6.186;2023-03-29T07:28:07;7.30;99.90
52543;DHT22;38449;52.696;6.186;2023-03-29T07:30:34;7.30;99.90
52543;DHT22;38449;52.696;6.186;2023-03-29T07:33:00;7.30;99.90
52543;DHT22;38449;52.696;6.186;2023-03-29T07:35:27;7.40;99.90
52543;DHT22;38449;52.696;6.186;2023-03-29T07:37:54;7.40;99.90
52543;DHT22;38449;52.696;6.186;2023-03-29T07:40:21;7.50;99.90
52543;DHT22;38449;52.696;6.186;2023-03-29T07:42:53;7.50;99.90
52543;DHT22;38449;52.696;6.186;2023-03-29T07:45:22;7.50;99.90
52543;DHT22;38449;52.696;6.186;2023-03-29T07:47:52;7.60;99.90
52543;DHT22;38449;52.696;6.186;2023-03-29T07:50:26;7.60;99.90
52543;DHT22;38449;52.696;6.186;2023-03-29T07:52:53;7.70;99.90
52543;DHT22;38449;52.696;6.186;2023-03-29T07:55:20;7.70;99.90
52543;DHT22;38449;52.696;6.186;2023-03-29T07:57:48;7.80;99.90
52543;DHT22;38449;52.696;6.186;2023-03-29T08:00:15;7.90;99.90
52543;DHT22;38449;52.696;6.186;2023-03-29T08:02:46;7.90;99.90
52543;DHT22;38449;52.696;6.186;2023-03-29T08:05:15;7.90;99.90
52543;DHT22;38449;52.696;6.186;2023-03-29T08:07:43;8.00;99.90
52543;DHT22;38449;52.696;6.186;2023-03-29T08:10:15;8.00;99.90
52543;DHT22;38449;52.696;6.186;2023-03-29T08:12:49;8.10;99.90
52543;DHT22;38449;52.696;6.186;2023-03-29T08:15:15;8.20;99.90
52543;DHT22;38449;52.696;6.186;2023-03-29T08:17:49;8.20;99.90
52543;DHT22;38449;52.696;6.186;2023-03-29T08:20:15;8.20;99.90
52543;DHT22;38449;52.696;6.186;2023-03-29T08:22:45;8.30;99.90
52543;DHT22;38449;52.696;6.186;2023-03-29T08:25:11;8.30;99.90
52543;DHT22;38449;52.696;6.186;2023-03-29T08:27:38;8.40;99.90
52543;DHT22;38449;52.696;6.186;2023-03-29T08:30:07;8.40;99.90
52543;DHT22;38449;52.696;6.186;2023-03-29T08:32:35;8.50;99.90
52543;DHT22;38449;52.696;6.186;2023-03-29T08:35:03;8.50;99.90
52543;DHT22;38449;52.696;6.186;2023-03-29T08:37:30;8.60;99.90
52543;DHT22;38449;52.696;6.186;2023-03-29T08:39:57;8.60;99.90
52543;DHT22;38449;52.696;6.186;2023-03-29T08:50:52;8.80;99.90
52543;DHT22;38449;52.696;6.186;2023-03-29T08:55:55;9.00;99.90
52543;DHT22;38449;52.696;6.186;2023-03-29T08:58:27;9.00;99.90
52543;DHT22;38449;52.696;6.186;2023-03-29T09:00:58;9.10;99.90
52543;DHT22;38449;52.696;6.186;2023-03-29T09:03:33;9.20;99.90
52543;DHT22;38449;52.696;6.186;2023-03-29T09:06:06;9.20;99.90
52543;DHT22;38449;52.696;6.186;2023-03-29T09:08:39;9.30;99.90
52543;DHT22;38449;52.696;6.186;2023-03-29T09:16:44;9.60;99.90
52543;DHT22;38449;52.696;6.186;2023-03-29T09:22:29;9.80;99.90
52543;DHT22;38449;52.696;6.186;2023-03-29T09:25:28;9.90;99.90
52543;DHT22;38449;52.696;6.186;2023-03-29T09:28:03;10.00;99.90
52543;DHT22;38449;52.696;6.186;2023-03-29T09:30:37;10.10;99.90
52543;DHT22;38449;52.696;6.186;2023-03-29T09:33:58;10.10;99.90
52543;DHT22;38449;52.696;6.186;2023-03-29T09:39:00;10.10;99.90
52543;DHT22;38449;52.696;6.186;2023-03-29T09:44:14;10.20;99.90
52543;DHT22;38449;52.696;6.186;2023-03-29T09:46:53;10.30;99.90
52543;DHT22;38449;52.696;6.186;2023-03-29T09:49:25;10.30;99.90
52543;DHT22;38449;52.696;6.186;2023-03-29T09:51:57;10.40;99.90
52543;DHT22;38449;52.696;6.186;2023-03-29T09:54:26;10.40;99.90
52543;DHT22;38449;52.696;6.186;2023-03-29T09:56:53;10.50;99.90
52543;DHT22;38449;52.696;6.186;2023-03-29T09:59:19;10.50;99.90
52543;DHT22;38449;52.696;6.186;2023-03-29T10:01:45;10.60;99.90
52543;DHT22;38449;52.696;6.186;2023-03-29T10:04:14;10.70;99.90
52543;DHT22;38449;52.696;6.186;2023-03-29T10:06:44;10.70;99.90
52543;DHT22;38449;52.696;6.186;2023-03-29T10:09:18;10.90;99.90
52543;DHT22;38449;52.696;6.186;2023-03-29T10:11:48;11.00;99.90
52543;DHT22;38449;52.696;6.186;2023-03-29T10:14:30;11.20;99.90
52543;DHT22;38449;52.696;6.186;2023-03-29T10:16:57;11.40;99.90
52543;DHT22;38449;52.696;6.186;2023-03-29T10:19:32;11.60;99.90
52543;DHT22;38449;52.696;6.186;2023-03-29T10:22:06;11.70;99.90
52543;DHT22;38449;52.696;6.186;2023-03-29T10:24:39;11.80;99.90
52543;DHT22;38449;52.696;6.186;2023-03-29T10:27:12;12.00;99.90
52543;DHT22;38449;52.696;6.186;2023-03-29T10:29:42;12.10;99.90
52543;DHT22;38449;52.696;6.186;2023-03-29T10:34:42;12.20;99.90
52543;DHT22;38449;52.696;6.186;2023-03-29T10:37:10;12.10;99.90
52543;DHT22;38449;52.696;6.186;2023-03-29T10:39:39;12.20;99.90
52543;DHT22;38449;52.696;6.186;2023-03-29T10:42:06;12.30;99.90
52543;DHT22;38449;52.696;6.186;2023-03-29T10:44:38;12.40;99.90
52543;DHT22;38449;52.696;6.186;2023-03-29T10:47:14;12.60;99.90
52543;DHT22;38449;52.696;6.186;2023-03-29T10:49:44;12.70;99.90
52543;DHT22;38449;52.696;6.186;2023-03-29T10:52:15;12.80;99.90
52543;DHT22;38449;52.696;6.186;2023-03-29T10:54:43;12.80;99.90
52543;DHT22;38449;52.696;6.186;2023-03-29T11:00:26;12.90;99.90
52543;DHT22;38449;52.696;6.186;2023-03-29T11:06:22;13.00;99.90
52543;DHT22;38449;52.696;6.186;2023-03-29T11:09:01;13.00;99.90
52543;DHT22;38449;52.696;6.186;2023-03-29T11:20:03;13.20;99.90
52543;DHT22;38449;52.696;6.186;2023-03-29T11:27:39;13.30;99.90
52543;DHT22;38449;52.696;6.186;2023-03-29T11:30:29;13.30;99.90
52543;DHT22;38449;52.696;6.186;2023-03-29T11:33:06;13.40;99.90
52543;DHT22;38449;52.696;6.186;2023-03-29T11:35:39;13.40;99.90
52543;DHT22;38449;52.696;6.186;2023-03-29T11:41:27;13.50;99.90
52543;DHT22;38449;52.696;6.186;2023-03-29T11:46:40;13.40;99.90
52543;DHT22;38449;52.696;6.186;2023-03-29T11:49:18;13.60;99.90
52543;DHT22;38449;52.696;6.186;2023-03-29T11:54:29;13.50;99.90
52543;DHT22;38449;52.696;6.186;2023-03-29T11:57:04;13.30;99.90
52543;DHT22;38449;52.696;6.186;2023-03-29T11:59:36;13.60;99.90
52543;DHT22;38449;52.696;6.186;2023-03-29T12:02:13;13.60;99.90
52543;DHT22;38449;52.696;6.186;2023-03-29T12:04:45;13.80;99.90
52543;DHT22;38449;52.696;6.186;2023-03-29T12:07:22;13.90;99.90
52543;DHT22;38449;52.696;6.186;2023-03-29T12:10:12;14.00;99.90
52543;DHT22;38449;52.696;6.186;2023-03-29T12:12:57;14.00;99.90
52543;DHT22;38449;52.696;6.186;2023-03-29T12:15:28;14.20;99.90
52543;DHT22;38449;52.696;6.186;2023-03-29T12:18:25;14.30;99.90
52543;DHT22;38449;52.696;6.186;2023-03-29T12:20:56;14.40;99.90
52543;DHT22;38449;52.696;6.186;2023-03-29T12:23:32;14.50;99.90
52543;DHT22;38449;52.696;6.186;2023-03-29T12:26:04;14.50;99.90
52543;DHT22;38449;52.696;6.186;2023-03-29T12:28:55;14.60;99.90
52543;DHT22;38449;52.696;6.186;2023-03-29T12:31:35;14.60;99.90
52543;DHT22;38449;52.696;6.186;2023-03-29T12:39:26;14.80;99.90
52543;DHT22;38449;52.696;6.186;2023-03-29T12:42:20;14.90;99.90
52543;DHT22;38449;52.696;6.186;2023-03-29T12:44:58;15.00;99.90
52543;DHT22;38449;52.696;6.186;2023-03-29T12:47:30;15.00;99.90
52543;DHT22;38449;52.696;6.186;2023-03-29T12:49:58;14.90;99.90
52543;DHT22;38449;52.696;6.186;2023-03-29T12:52:32;15.10;99.90
52543;DHT22;38449;52.696;6.186;2023-03-29T12:55:29;15.00;99.90
52543;DHT22;38449;52.696;6.186;2023-03-29T12:58:05;15.00;99.90
52543;DHT22;38449;52.696;6.186;2023-03-29T13:06:01;15.20;99.90
52543;DHT22;38449;52.696;6.186;2023-03-29T13:08:34;15.20;99.90
52543;DHT22;38449;52.696;6.186;2023-03-29T13:11:02;15.20;99.90
52543;DHT22;38449;52.696;6.186;2023-03-29T13:13:35;15.10;99.90
52543;DHT22;38449;52.696;6.186;2023-03-29T13:18:57;14.80;99.90
52543;DHT22;38449;52.696;6.186;2023-03-29T13:22:19;14.90;99.90
52543;DHT22;38449;52.696;6.186;2023-03-29T13:24:28;15.10;99.90
52543;DHT22;38449;52.696;6.186;2023-03-29T13:46:20;15.40;99.90
52543;DHT22;38449;52.696;6.186;2023-03-29T13:48:57;15.50;99.90
52543;DHT22;38449;52.696;6.186;2023-03-29T13:51:32;15.40;99.90
52543;DHT22;38449;52.696;6.186;2023-03-29T13:57:18;15.50;99.90
52543;DHT22;38449;52.696;6.186;2023-03-29T14:00:14;15.30;99.90
52543;DHT22;38449;52.696;6.186;2023-03-29T14:02:54;15.20;99.90
52543;DHT22;38449;52.696;6.186;2023-03-29T14:05:28;15.20;99.90
52543;DHT22;38449;52.696;6.186;2023-03-29T14:07:56;15.30;99.90
52543;DHT22;38449;52.696;6.186;2023-03-29T14:10:34;15.20;99.90
52543;DHT22;38449;52.696;6.186;2023-03-29T14:13:02;15.30;99.90
52543;DHT22;38449;52.696;6.186;2023-03-29T14:16:02;15.20;99.90
52543;DHT22;38449;52.696;6.186;2023-03-29T14:18:36;15.30;99.90
52543;DHT22;38449;52.696;6.186;2023-03-29T14:21:03;15.30;99.90
52543;DHT22;38449;52.696;6.186;2023-03-29T14:23:32;15.30;99.90
52543;DHT22;38449;52.696;6.186;2023-03-29T14:26:16;15.30;99.90
52543;DHT22;38449;52.696;6.186;2023-03-29T14:28:52;15.30;99.90
52543;DHT22;38449;52.696;6.186;2023-03-29T14:31:20;15.20;99.90
52543;DHT22;38449;52.696;6.186;2023-03-29T14:33:52;15.00;99.90
52543;DHT22;38449;52.696;6.186;2023-03-29T14:36:19;15.00;99.90
52543;DHT22;38449;52.696;6.186;2023-03-29T14:38:51;14.90;99.90
52543;DHT22;38449;52.696;6.186;2023-03-29T14:41:18;14.90;99.90
52543;DHT22;38449;52.696;6.186;2023-03-29T14:43:46;14.80;99.90
52543;DHT22;38449;52.696;6.186;2023-03-29T14:46:14;14.80;99.90
52543;DHT22;38449;52.696;6.186;2023-03-29T14:48:43;14.70;99.90
52543;DHT22;38449;52.696;6.186;2023-03-29T14:51:09;14.70;99.90
52543;DHT22;38449;52.696;6.186;2023-03-29T14:53:40;14.90;99.90
52543;DHT22;38449;52.696;6.186;2023-03-29T14:56:14;14.80;99.90
52543;DHT22;38449;52.696;6.186;2023-03-29T14:58:44;14.70;99.90
52543;DHT22;38449;52.696;6.186;2023-03-29T15:01:19;14.70;99.90
52543;DHT22;38449;52.696;6.186;2023-03-29T15:06:25;14.80;99.90
52543;DHT22;38449;52.696;6.186;2023-03-29T15:08:54;14.70;99.90
52543;DHT22;38449;52.696;6.186;2023-03-29T15:11:25;14.50;99.90
52543;DHT22;38449;52.696;6.186;2023-03-29T15:14:00;14.40;99.90
52543;DHT22;38449;52.696;6.186;2023-03-29T15:16:28;14.30;99.90
52543;DHT22;38449;52.696;6.186;2023-03-29T15:18:59;14.30;99.90
52543;DHT22;38449;52.696;6.186;2023-03-29T15:21:32;14.20;99.90
52543;DHT22;38449;52.696;6.186;2023-03-29T15:24:00;14.10;99.90
52543;DHT22;38449;52.696;6.186;2023-03-29T15:26:32;14.10;99.90
52543;DHT22;38449;52.696;6.186;2023-03-29T15:29:14;14.00;99.90
52543;DHT22;38449;52.696;6.186;2023-03-29T15:31:56;13.90;99.90
52543;DHT22;38449;52.696;6.186;2023-03-29T15:34:30;13.80;99.90
52543;DHT22;38449;52.696;6.186;2023-03-29T15:36:57;13.80;99.90
52543;DHT22;38449;52.696;6.186;2023-03-29T15:39:25;13.90;99.90
52543;DHT22;38449;52.696;6.186;2023-03-29T15:41:56;13.90;99.90
52543;DHT22;38449;52.696;6.186;2023-03-29T15:44:27;13.80;99.90
52543;DHT22;38449;52.696;6.186;2023-03-29T15:46:55;13.80;99.90
52543;DHT22;38449;52.696;6.186;2023-03-29T15:49:23;13.80;99.90
52543;DHT22;38449;52.696;6.186;2023-03-29T15:51:50;13.70;99.90
52543;DHT22;38449;52.696;6.186;2023-03-29T15:54:22;13.70;99.90
52543;DHT22;38449;52.696;6.186;2023-03-29T15:56:53;13.70;99.90
52543;DHT22;38449;52.696;6.186;2023-03-29T15:59:20;13.70;99.90
52543;DHT22;38449;52.696;6.186;2023-03-29T16:01:54;13.80;99.90
52543;DHT22;38449;52.696;6.186;2023-03-29T16:04:24;13.90;99.90
52543;DHT22;38449;52.696;6.186;2023-03-29T16:06:52;13.90;99.90
52543;DHT22;38449;52.696;6.186;2023-03-29T16:09:20;13.80;99.90
52543;DHT22;38449;52.696;6.186;2023-03-29T16:11:47;13.80;99.90
52543;DHT22;38449;52.696;6.186;2023-03-29T16:14:22;13.80;99.90
52543;DHT22;38449;52.696;6.186;2023-03-29T16:17:00;13.70;99.90
52543;DHT22;38449;52.696;6.186;2023-03-29T16:19:29;13.60;99.90
52543;DHT22;38449;52.696;6.186;2023-03-29T16:21:58;13.60;99.90
52543;DHT22;38449;52.696;6.186;2023-03-29T16:24:27;13.50;99.90
52543;DHT22;38449;52.696;6.186;2023-03-29T16:26:55;13.50;99.90
52543;DHT22;38449;52.696;6.186;2023-03-29T16:29:23;13.60;99.90
52543;DHT22;38449;52.696;6.186;2023-03-29T16:31:50;13.60;99.90
52543;DHT22;38449;52.696;6.186;2023-03-29T16:34:18;13.50;99.90
52543;DHT22;38449;52.696;6.186;2023-03-29T16:36:45;13.40;99.90
52543;DHT22;38449;52.696;6.186;2023-03-29T16:39:12;13.30;99.90
52543;DHT22;38449;52.696;6.186;2023-03-29T16:41:40;13.30;99.90
52543;DHT22;38449;52.696;6.186;2023-03-29T16:44:11;13.30;99.90
52543;DHT22;38449;52.696;6.186;2023-03-29T16:46:42;13.20;99.90
52543;DHT22;38449;52.696;6.186;2023-03-29T16:49:12;13.00;99.90
52543;DHT22;38449;52.696;6.186;2023-03-29T16:51:46;13.00;99.90
52543;DHT22;38449;52.696;6.186;2023-03-29T16:54:14;12.90;99.90
52543;DHT22;38449;52.696;6.186;2023-03-29T16:56:40;12.80;99.90
52543;DHT22;38449;52.696;6.186;2023-03-29T16:59:06;12.70;99.90
52543;DHT22;38449;52.696;6.186;2023-03-29T17:01:34;12.80;99.90
52543;DHT22;38449;52.696;6.186;2023-03-29T17:04:01;12.70;99.90
52543;DHT22;38449;52.696;6.186;2023-03-29T17:06:28;12.70;99.90
52543;DHT22;38449;52.696;6.186;2023-03-29T17:08:57;12.70;99.90
52543;DHT22;38449;52.696;6.186;2023-03-29T17:11:24;12.70;99.90
52543;DHT22;38449;52.696;6.186;2023-03-29T17:13:51;12.70;99.90
52543;DHT22;38449;52.696;6.186;2023-03-29T17:16:17;12.60;99.90
52543;DHT22;38449;52.696;6.186;2023-03-29T17:18:43;12.60;99.90
52543;DHT22;38449;52.696;6.186;2023-03-29T17:21:09;12.50;99.90
52543;DHT22;38449;52.696;6.186;2023-03-29T17:23:36;12.50;99.90
52543;DHT22;38449;52.696;6.186;2023-03-29T17:26:03;12.40;99.90
52543;DHT22;38449;52.696;6.186;2023-03-29T17:28:33;12.40;99.90
52543;DHT22;38449;52.696;6.186;2023-03-29T17:31:03;12.30;99.90
52543;DHT22;38449;52.696;6.186;2023-03-29T17:33:29;12.20;99.90
52543;DHT22;38449;52.696;6.186;2023-03-29T17:35:56;12.20;99.90
52543;DHT22;38449;52.696;6.186;2023-03-29T17:38:22;12.20;99.90
52543;DHT22;38449;52.696;6.186;2023-03-29T17:40:53;12.10;99.90
52543;DHT22;38449;52.696;6.186;2023-03-29T17:43:19;12.10;99.90
52543;DHT22;38449;52.696;6.186;2023-03-29T17:45:50;12.00;99.90
52543;DHT22;38449;52.696;6.186;2023-03-29T17:48:18;12.00;99.90
52543;DHT22;38449;52.696;6.186;2023-03-29T17:50:44;12.00;99.90
52543;DHT22;38449;52.696;6.186;2023-03-29T17:53:11;12.00;99.90
52543;DHT22;38449;52.696;6.186;2023-03-29T17:55:39;11.90;99.90